createdAt,value
2019-04-28T00:00:51.029Z,73.09
2019-04-28T00:03:23.668Z,73.41
2019-04-28T00:05:54.979Z,74.16
2019-04-28T00:08:26.386Z,73.66
2019-04-28T00:10:57.830Z,73.13
2019-04-28T00:13:29.267Z,73.59
2019-04-28T00:16:01.640Z,74.20
2019-04-28T00:18:34.232Z,74.50
2019-04-28T00:21:08.807Z,74.10
2019-04-28T00:23:57.957Z,73.87
2019-04-28T00:26:36.947Z,73.08
2019-04-28T00:29:08.463Z,73.21
2019-04-28T00:31:41.419Z,73.06
2019-04-28T00:34:13.887Z,72.81
2019-04-28T00:36:46.829Z,72.40
2019-04-28T00:39:21.055Z,72.67
2019-04-28T00:41:52.425Z,72.48
2019-04-28T00:44:24.716Z,72.36
2019-04-28T00:46:56.091Z,71.71
2019-04-28T00:49:45.856Z,72.42
2019-04-28T00:52:19.079Z,72.01
2019-04-28T00:54:52.341Z,72.32
2019-04-28T00:57:24.608Z,71.84
2019-04-28T00:59:58.729Z,72.35
2019-04-28T01:02:41.290Z,72.33
2019-04-28T01:05:13.976Z,72.03
2019-04-28T01:07:45.440Z,72.49
2019-04-28T01:10:17.175Z,72.33
2019-04-28T01:12:48.535Z,72.13
2019-04-28T01:15:27.171Z,72.02
2019-04-28T01:18:00.747Z,71.85
2019-04-28T01:20:32.376Z,72.62
2019-04-28T01:23:04.054Z,72.26
2019-04-28T01:25:35.426Z,72.74
2019-04-28T01:28:06.706Z,72.41
2019-04-28T01:30:40.222Z,72.05
2019-04-28T01:33:13.287Z,72.84
2019-04-28T01:35:44.744Z,72.13
2019-04-28T01:38:16.198Z,71.96
2019-04-28T01:40:47.531Z,72.07
2019-04-28T01:43:19.621Z,72.05
2019-04-28T01:45:51.139Z,72.54
2019-04-28T01:48:22.454Z,73.04
2019-04-28T01:50:54.650Z,73.08
2019-04-28T01:53:25.952Z,72.92
2019-04-28T01:55:57.245Z,73.21
2019-04-28T01:58:29.694Z,73.43
2019-04-28T02:01:01.179Z,73.18
2019-04-28T02:03:32.548Z,73.53
2019-04-28T02:06:03.914Z,73.09
2019-04-28T02:08:35.261Z,73.11
2019-04-28T02:11:06.714Z,73.58
2019-04-28T02:13:39.668Z,72.98
2019-04-28T02:16:11.166Z,73.57
2019-04-28T02:18:42.629Z,72.95
2019-04-28T02:21:19.581Z,73.24
2019-04-28T02:23:51.442Z,73.10
2019-04-28T02:26:22.993Z,73.22
2019-04-28T02:28:54.268Z,73.19
2019-04-28T02:31:25.617Z,73.62
2019-04-28T02:33:56.846Z,73.38
2019-04-28T02:36:31.099Z,73.31
2019-04-28T02:39:01.070Z,73.06
2019-04-28T02:41:34.073Z,73.20
2019-04-28T02:44:05.435Z,73.18
2019-04-28T02:46:40.588Z,73.30
2019-04-28T02:49:12.908Z,73.59
2019-04-28T02:51:57.019Z,73.75
2019-04-28T02:54:30.470Z,73.29
2019-04-28T02:57:01.863Z,73.81
2019-04-28T02:59:33.163Z,73.83
2019-04-28T03:02:04.782Z,73.90
2019-04-28T03:04:36.153Z,74.35
2019-04-28T03:07:07.515Z,74.00
2019-04-28T03:09:40.402Z,74.95
2019-04-28T03:12:12.133Z,74.56
2019-04-28T03:14:44.239Z,74.48
2019-04-28T03:17:16.973Z,74.83
2019-04-28T03:19:51.355Z,74.67
2019-04-28T03:22:21.322Z,74.99
2019-04-28T03:24:54.193Z,74.80
2019-04-28T03:27:40.589Z,74.69
2019-04-28T03:30:33.855Z,74.89
2019-04-28T03:33:10.865Z,74.89
2019-04-28T03:35:37.259Z,74.66
2019-04-28T03:38:10.633Z,74.25
2019-04-28T03:40:41.680Z,75.04
2019-04-28T03:43:14.437Z,74.52
2019-04-28T03:45:50.577Z,75.02
2019-04-28T03:48:21.929Z,75.38
2019-04-28T03:50:53.317Z,74.92
2019-04-28T03:53:24.687Z,75.35
2019-04-28T03:55:56.053Z,74.94
2019-04-28T03:58:27.449Z,74.95
2019-04-28T04:01:02.655Z,74.94
2019-04-28T04:03:31.770Z,75.26
2019-04-28T04:06:03.053Z,75.10
2019-04-28T04:08:34.461Z,75.49
2019-04-28T04:11:23.688Z,75.83
2019-04-28T04:13:56.640Z,76.07
2019-04-28T04:16:40.557Z,75.96
2019-04-28T04:19:15.949Z,75.30
2019-04-28T04:21:47.287Z,75.69
2019-04-28T04:24:20.531Z,76.17
2019-04-28T04:26:51.726Z,76.50
2019-04-28T04:29:23.146Z,76.12
2019-04-28T04:32:10.259Z,76.33
2019-04-28T04:34:27.505Z,76.98
2019-04-28T04:37:00.673Z,76.59
2019-04-28T04:39:31.983Z,76.93
2019-04-28T04:42:03.237Z,77.32
2019-04-28T04:44:37.797Z,77.28
2019-04-28T04:47:07.607Z,77.50
2019-04-28T04:49:40.466Z,77.58
2019-04-28T04:52:11.939Z,77.85
2019-04-28T04:54:44.134Z,77.91
2019-04-28T04:57:15.369Z,78.15
2019-04-28T04:59:46.660Z,78.38
2019-04-28T05:02:29.316Z,77.88
2019-04-28T05:05:03.390Z,78.14
2019-04-28T05:07:34.606Z,76.16
2019-04-28T05:10:07.333Z,76.05
2019-04-28T05:12:40.329Z,75.75
2019-04-28T05:15:11.759Z,75.45
2019-04-28T05:17:42.988Z,74.73
2019-04-28T05:20:14.417Z,75.15
2019-04-28T05:22:47.361Z,74.88
2019-04-28T05:25:20.494Z,74.71
2019-04-28T05:27:54.559Z,74.35
2019-04-28T05:30:24.772Z,72.81
2019-04-28T05:32:57.307Z,73.50
2019-04-28T05:35:29.435Z,73.36
2019-04-28T05:38:00.987Z,74.28
2019-04-28T05:40:32.322Z,73.74
2019-04-28T05:43:03.550Z,73.11
2019-04-28T05:45:34.965Z,73.11
2019-04-28T05:48:08.884Z,72.91
2019-04-28T05:50:50.097Z,72.54
2019-04-28T05:53:23.245Z,72.61
2019-04-28T05:55:56.237Z,72.58
2019-04-28T05:58:30.167Z,72.16
2019-04-28T06:01:03.988Z,72.34
2019-04-28T06:03:36.019Z,73.01
2019-04-28T06:06:07.453Z,72.52
2019-04-28T06:08:43.277Z,72.30
2019-04-28T06:11:31.345Z,72.94
2019-04-28T06:14:02.730Z,71.75
2019-04-28T06:16:34.134Z,71.52
2019-04-28T06:19:05.546Z,71.93
2019-04-28T06:21:37.064Z,71.42
2019-04-28T06:24:08.303Z,70.92
2019-04-28T06:26:39.814Z,71.71
2019-04-28T06:29:11.184Z,70.63
2019-04-28T06:31:42.524Z,70.97
2019-04-28T06:34:14.738Z,68.84
2019-04-28T06:36:46.313Z,70.25
2019-04-28T06:39:17.534Z,69.45
2019-04-28T06:41:48.894Z,68.60
2019-04-28T06:44:20.126Z,68.97
2019-04-28T06:46:51.482Z,70.26
2019-04-28T06:49:22.775Z,67.76
2019-04-28T06:51:54.451Z,68.04
2019-04-28T06:54:25.671Z,66.92
2019-04-28T06:56:57.087Z,66.79
2019-04-28T06:59:28.457Z,65.69
2019-04-28T07:01:59.977Z,66.95
2019-04-28T07:04:31.211Z,65.77
2019-04-28T07:07:02.533Z,65.80
2019-04-28T07:09:34.280Z,67.22
2019-04-28T07:12:05.695Z,67.15
2019-04-28T07:14:37.251Z,66.89
2019-04-28T07:17:08.806Z,66.51
2019-04-28T07:19:41.771Z,66.46
2019-04-28T07:22:14.788Z,65.46
2019-04-28T07:24:46.087Z,66.54
2019-04-28T07:27:17.377Z,64.69
2019-04-28T07:29:48.620Z,63.99
2019-04-28T07:32:20.117Z,64.60
2019-04-28T07:34:51.354Z,64.44
2019-04-28T07:37:22.814Z,66.64
2019-04-28T07:39:56.656Z,65.93
2019-04-28T07:42:27.008Z,65.93
2019-04-28T07:44:58.326Z,65.77
2019-04-28T07:47:29.611Z,65.67
2019-04-28T07:50:00.848Z,65.32
2019-04-28T07:52:33.951Z,65.45
2019-04-28T07:55:07.408Z,65.55
2019-04-28T07:57:38.752Z,64.28
2019-04-28T08:00:12.015Z,65.10
2019-04-28T08:02:43.693Z,64.51
2019-04-28T08:05:15.087Z,65.46
2019-04-28T08:07:46.439Z,64.16
2019-04-28T08:10:18.681Z,64.85
2019-04-28T08:12:50.032Z,64.47
2019-04-28T08:15:21.546Z,63.89
2019-04-28T08:17:52.966Z,64.74
2019-04-28T08:20:24.351Z,66.04
2019-04-28T08:22:55.789Z,65.63
2019-04-28T08:25:27.080Z,65.33
2019-04-28T08:28:00.224Z,65.23
2019-04-28T08:30:31.837Z,64.10
2019-04-28T08:33:04.870Z,64.86
2019-04-28T08:35:36.375Z,63.27
2019-04-28T08:38:07.877Z,62.00
2019-04-28T08:40:39.110Z,63.11
2019-04-28T08:43:10.516Z,61.17
2019-04-28T08:45:41.756Z,61.23
2019-04-28T08:48:15.524Z,61.21
2019-04-28T08:50:46.887Z,60.76
2019-04-28T08:53:18.804Z,61.53
2019-04-28T08:55:51.170Z,61.79
2019-04-28T08:58:22.643Z,63.64
2019-04-28T09:00:54.182Z,62.88
2019-04-28T09:03:25.525Z,64.12
2019-04-28T09:05:56.758Z,60.47
2019-04-28T09:08:28.183Z,60.28
2019-04-28T09:10:59.517Z,61.08
2019-04-28T09:13:30.875Z,60.23
2019-04-28T09:16:02.210Z,60.18
2019-04-28T09:18:33.569Z,60.05
2019-04-28T09:21:05.844Z,57.68
2019-04-28T09:23:37.331Z,57.62
2019-04-28T09:26:12.571Z,59.30
2019-04-28T09:28:44.005Z,59.67
2019-04-28T09:31:15.239Z,56.90
2019-04-28T09:33:47.180Z,56.53
2019-04-28T09:36:18.704Z,59.12
2019-04-28T09:38:50.661Z,56.94
2019-04-28T09:41:22.192Z,58.61
2019-04-28T09:43:58.184Z,55.98
2019-04-28T09:46:33.555Z,57.57
2019-04-28T09:49:05.149Z,58.00
2019-04-28T09:51:36.614Z,55.10
2019-04-28T09:54:08.055Z,55.84
2019-04-28T09:56:39.572Z,57.81
2019-04-28T09:59:11.045Z,51.58
2019-04-28T10:01:42.448Z,55.01
2019-04-28T10:04:15.443Z,54.96
2019-04-28T10:06:46.745Z,50.97
2019-04-28T10:09:18.142Z,50.84
2019-04-28T10:11:49.576Z,55.68
2019-04-28T10:14:21.018Z,51.67
2019-04-28T10:16:53.914Z,50.70
2019-04-28T10:19:25.371Z,52.63
2019-04-28T10:21:59.346Z,56.49
2019-04-28T10:24:30.725Z,57.73
2019-04-28T10:27:04.830Z,57.83
2019-04-28T10:29:38.040Z,57.31
2019-04-28T10:32:09.373Z,58.21
2019-04-28T10:34:40.839Z,56.87
2019-04-28T10:37:35.269Z,59.90
2019-04-28T10:44:24.953Z,64.69
2019-04-28T10:46:57.645Z,69.16
2019-04-28T10:49:29.082Z,67.76
2019-04-28T10:52:04.090Z,67.01
2019-04-28T10:54:41.094Z,71.44
2019-04-28T10:57:12.600Z,72.27
2019-04-28T10:59:43.857Z,71.35
2019-04-28T11:02:17.591Z,69.44
2019-04-28T11:04:50.511Z,67.20
2019-04-28T11:07:22.008Z,66.81
2019-04-28T11:09:56.817Z,68.26
2019-04-28T11:12:30.806Z,66.98
2019-04-28T11:15:02.410Z,65.96
2019-04-28T11:17:33.769Z,64.46
2019-04-28T11:20:05.357Z,64.18
2019-04-28T11:22:36.739Z,65.22
2019-04-28T11:25:08.210Z,64.74
2019-04-28T11:27:39.824Z,59.85
2019-04-28T11:30:12.081Z,61.48
2019-04-28T11:33:01.071Z,66.10
2019-04-28T11:35:34.025Z,55.91
2019-04-28T11:38:05.465Z,63.08
2019-04-28T11:40:39.764Z,56.34
2019-04-28T11:43:11.353Z,57.44
2019-04-28T11:45:42.656Z,53.97
2019-04-28T11:48:14.124Z,53.83
2019-04-28T11:50:45.442Z,56.50
2019-04-28T11:53:16.784Z,54.63
2019-04-28T11:55:48.116Z,51.03
2019-04-28T11:58:19.424Z,51.83
2019-04-28T12:00:50.960Z,51.12
2019-04-28T12:03:23.356Z,50.72
2019-04-28T12:05:54.783Z,56.61
2019-04-28T12:08:27.064Z,54.23
2019-04-28T12:11:07.167Z,56.06
2019-04-28T12:13:55.083Z,58.29
2019-04-28T12:16:44.651Z,56.58
2019-04-28T12:19:20.635Z,55.89
2019-04-28T12:21:53.032Z,55.51
2019-04-28T12:24:24.584Z,59.66
2019-04-28T12:26:56.426Z,55.40
2019-04-28T12:29:27.949Z,54.31
2019-04-28T12:31:59.264Z,53.93
2019-04-28T12:34:30.551Z,56.47
2019-04-28T12:37:08.227Z,54.06
2019-04-28T12:39:47.437Z,57.10
2019-04-28T12:42:18.915Z,55.57
2019-04-28T12:44:50.730Z,56.95
2019-04-28T12:47:22.234Z,58.38
2019-04-28T12:49:56.191Z,55.04
2019-04-28T12:52:27.585Z,56.32
2019-04-28T12:54:59.037Z,58.67
2019-04-28T12:57:30.311Z,61.76
2019-04-28T13:00:13.048Z,60.74
2019-04-28T13:03:02.411Z,63.15
2019-04-28T13:05:35.436Z,63.96
2019-04-28T13:08:07.273Z,64.80
2019-04-28T13:10:38.630Z,66.12
2019-04-28T13:13:10.945Z,66.77
2019-04-28T13:15:42.422Z,66.23
2019-04-28T13:18:13.668Z,67.22
2019-04-28T13:20:45.165Z,65.45
2019-04-28T13:23:16.675Z,66.28
2019-04-28T13:25:48.286Z,65.40
2019-04-28T13:28:19.810Z,64.32
2019-04-28T13:30:55.386Z,65.28
2019-04-28T13:33:26.680Z,66.13
2019-04-28T13:35:58.078Z,67.43
2019-04-28T13:38:29.501Z,64.13
2019-04-28T13:41:14.250Z,62.69
2019-04-28T13:43:45.490Z,60.97
2019-04-28T13:46:17.008Z,59.64
2019-04-28T13:48:48.293Z,58.94
2019-04-28T13:51:19.747Z,54.53
2019-04-28T13:53:52.437Z,54.83
2019-04-28T13:56:24.033Z,52.84
2019-04-28T13:58:56.900Z,50.77
2019-04-28T14:01:44.999Z,50.10
2019-04-28T14:04:23.897Z,53.24
2019-04-28T14:06:56.668Z,54.19
2019-04-28T14:09:32.122Z,50.33
2019-04-28T14:12:03.677Z,52.33
2019-04-28T14:14:35.946Z,48.83
2019-04-28T14:17:07.298Z,49.09
2019-04-28T14:19:38.678Z,50.57
2019-04-28T14:22:10.047Z,49.37
2019-04-28T14:24:41.410Z,52.23
2019-04-28T14:27:12.722Z,51.02
2019-04-28T14:29:44.119Z,53.62
2019-04-28T14:32:15.401Z,54.54
2019-04-28T14:34:46.682Z,55.90
2019-04-28T14:37:18.522Z,54.39
2019-04-28T14:39:49.804Z,54.16
2019-04-28T14:42:21.266Z,54.08
2019-04-28T14:44:52.591Z,56.79
2019-04-28T14:47:24.044Z,57.18
2019-04-28T14:49:56.014Z,54.61
2019-04-28T14:52:27.517Z,54.97
2019-04-28T14:54:58.906Z,54.80
2019-04-28T14:57:30.491Z,57.83
2019-04-28T15:00:01.804Z,58.53
2019-04-28T15:02:56.870Z,60.42
2019-04-28T15:05:29.816Z,60.85
2019-04-28T15:08:15.967Z,61.95
2019-04-28T15:10:58.011Z,62.89
2019-04-28T15:13:29.483Z,64.06
2019-04-28T15:16:01.106Z,62.99
2019-04-28T15:18:33.487Z,64.31
2019-04-28T15:21:05.047Z,64.84
2019-04-28T15:23:36.586Z,65.94
2019-04-28T15:26:08.515Z,68.26
2019-04-28T15:28:40.258Z,69.57
2019-04-28T15:31:13.363Z,69.96
2019-04-28T15:33:44.743Z,68.74
2019-04-28T15:36:16.186Z,65.46
2019-04-28T15:38:47.537Z,68.84
2019-04-28T15:41:21.981Z,69.31
2019-04-28T15:43:51.836Z,69.60
2019-04-28T15:46:23.160Z,69.09
2019-04-28T15:48:56.290Z,66.29
2019-04-28T15:51:27.716Z,65.75
2019-04-28T15:54:00.158Z,64.11
2019-04-28T15:56:33.048Z,63.31
2019-04-28T16:23:40.622Z,64.86
2019-04-28T16:33:02.738Z,64.26
2019-04-28T16:33:23.223Z,65.91
2019-04-28T16:35:34.543Z,65.47
2019-04-28T16:39:02.245Z,64.57
2019-04-28T16:41:43.369Z,65.37
2019-04-28T16:44:27.315Z,64.78
2019-04-28T16:46:58.807Z,65.18
2019-04-28T16:49:48.293Z,63.67
2019-04-28T16:52:24.518Z,65.15
2019-04-28T16:55:17.805Z,65.27
2019-04-28T16:57:59.937Z,63.62
2019-04-28T17:00:36.760Z,64.63
2019-04-28T17:03:14.669Z,64.94
2019-04-28T17:05:53.226Z,63.56
2019-04-28T17:08:37.199Z,63.96
2019-04-28T17:11:08.984Z,64.67
2019-04-28T17:13:41.598Z,65.45
2019-04-28T17:16:13.561Z,65.88
2019-04-28T17:19:40.291Z,66.45
2019-04-28T17:22:14.398Z,66.32
2019-04-28T17:25:11.173Z,65.64
2019-04-28T17:40:06.365Z,67.02
2019-04-28T17:42:38.320Z,66.50
2019-04-28T17:45:10.355Z,66.63
2019-04-28T17:47:45.771Z,66.36
2019-04-28T17:50:24.331Z,66.24
2019-04-28T17:52:55.902Z,67.07
2019-04-28T17:55:27.495Z,67.38
2019-04-28T17:58:01.244Z,67.61
2019-04-28T18:00:36.669Z,68.24
2019-04-28T18:03:10.076Z,68.18
2019-04-28T18:05:47.382Z,68.75
2019-04-28T18:08:21.600Z,68.99
2019-04-28T18:10:55.918Z,69.56
2019-04-28T18:13:27.404Z,69.78
2019-04-28T18:16:21.531Z,70.09
2019-04-28T18:18:57.402Z,69.76
2019-04-28T18:21:28.989Z,69.12
2019-04-28T18:24:02.057Z,69.53
2019-04-28T18:26:36.115Z,69.35
2019-04-28T18:29:07.771Z,69.87
2019-04-28T18:31:40.994Z,72.13
2019-04-28T18:34:42.514Z,72.86
2019-04-28T18:37:36.209Z,73.06
2019-04-28T18:40:10.843Z,72.92
2019-04-28T18:42:53.179Z,72.82
2019-04-28T18:45:30.606Z,73.01
2019-04-28T18:48:03.038Z,73.42
2019-04-28T18:50:36.161Z,73.34
2019-04-28T18:53:07.722Z,73.60
2019-04-28T18:55:42.510Z,73.64
2019-04-28T18:58:13.918Z,73.38
2019-04-28T19:00:47.088Z,73.09
2019-04-28T19:03:18.558Z,72.19
2019-04-28T19:05:51.721Z,71.07
2019-04-28T19:08:30.894Z,71.00
2019-04-28T19:11:04.063Z,71.25
2019-04-28T19:13:38.476Z,71.86
2019-04-28T19:16:28.653Z,71.47
2019-04-28T19:19:01.770Z,71.99
2019-04-28T19:21:34.196Z,71.47
2019-04-28T19:24:05.780Z,71.37
2019-04-28T19:26:38.634Z,70.40
2019-04-28T19:29:10.296Z,69.29
2019-04-28T19:31:41.664Z,69.56
2019-04-28T19:34:13.227Z,68.83
2019-04-28T19:36:44.831Z,69.78
2019-04-28T19:39:16.210Z,69.78
2019-04-28T19:41:49.428Z,69.31
2019-04-28T19:44:21.232Z,68.76
2019-04-28T19:46:52.833Z,68.87
2019-04-28T19:49:24.357Z,69.22
2019-04-28T19:51:55.861Z,69.24
2019-04-28T19:54:28.789Z,70.76
2019-04-28T19:57:08.380Z,71.00
2019-04-28T19:59:57.876Z,70.79
2019-04-28T20:02:31.206Z,69.64
2019-04-28T20:05:02.586Z,70.01
2019-04-28T20:07:34.229Z,70.52
2019-04-28T20:10:07.323Z,69.85
2019-04-28T20:12:39.343Z,71.91
2019-04-28T20:15:10.927Z,72.87
2019-04-28T20:17:43.165Z,72.61
2019-04-28T20:20:14.746Z,72.81
2019-04-28T20:22:47.527Z,73.09
2019-04-28T20:25:19.080Z,73.18
2019-04-28T20:27:50.639Z,73.91
2019-04-28T20:30:22.109Z,74.76
2019-04-28T20:33:06.595Z,74.01
2019-04-28T20:35:31.010Z,74.25
2019-04-28T20:38:02.416Z,74.15
2019-04-28T20:40:35.579Z,75.46
2019-04-28T20:43:08.779Z,76.28
2019-04-28T20:45:40.137Z,77.03
2019-04-28T20:48:11.584Z,75.67
2019-04-28T20:50:43.572Z,73.72
2019-04-28T20:53:15.279Z,74.03
2019-04-28T20:55:46.853Z,74.34
2019-04-28T20:58:18.376Z,72.97
2019-04-28T21:00:49.795Z,71.67
2019-04-28T21:03:21.291Z,72.24
2019-04-28T21:05:56.290Z,72.11
2019-04-28T21:08:27.796Z,71.54
2019-04-28T21:10:59.225Z,70.97
2019-04-28T21:13:30.785Z,71.24
2019-04-28T21:16:02.184Z,71.58
2019-04-28T21:18:33.700Z,71.50
2019-04-28T21:21:16.343Z,71.66
2019-04-28T21:23:47.933Z,71.03
2019-04-28T21:26:19.333Z,71.38
2019-04-28T21:28:50.902Z,71.56
2019-04-28T21:31:22.270Z,71.72
2019-04-28T21:33:53.684Z,71.75
2019-04-28T21:36:25.104Z,72.40
2019-04-28T21:38:56.705Z,74.27
2019-04-28T21:41:28.198Z,76.24
2019-04-28T21:44:01.353Z,74.72
2019-04-28T21:46:34.339Z,74.48
2019-04-28T21:49:07.443Z,77.04
2019-04-28T21:51:38.887Z,76.47
2019-04-28T21:54:10.533Z,76.07
2019-04-28T21:56:41.947Z,74.98
2019-04-28T21:59:13.513Z,75.94
2019-04-28T22:01:45.444Z,77.37
2019-04-28T22:04:18.809Z,75.89
2019-04-28T22:06:51.450Z,75.04
2019-04-28T22:09:23.225Z,75.18
2019-04-28T22:11:54.779Z,74.45
2019-04-28T22:14:26.207Z,73.97
2019-04-28T22:16:59.103Z,74.43
2019-04-28T22:19:32.635Z,76.72
2019-04-28T22:22:28.772Z,75.26
2019-04-28T22:25:13.956Z,74.30
2019-04-28T22:27:45.195Z,76.90
2019-04-28T22:30:17.378Z,76.79
2019-04-28T22:32:50.335Z,76.66
2019-04-28T22:35:21.799Z,76.12
2019-04-28T22:37:54.169Z,74.94
2019-04-28T22:40:25.630Z,74.36
2019-04-28T22:42:57.044Z,73.67
2019-04-28T22:45:28.436Z,73.12
2019-04-28T22:48:00.050Z,72.82
2019-04-28T22:50:37.814Z,73.14
2019-04-28T22:53:09.215Z,74.12
2019-04-28T22:55:51.325Z,74.99
2019-04-28T22:58:30.704Z,74.75
2019-04-28T23:01:09.737Z,74.78
2019-04-28T23:03:51.540Z,77.43
2019-04-28T23:06:23.057Z,77.21
2019-04-28T23:08:54.633Z,74.86
2019-04-28T23:11:26.091Z,75.22
2019-04-28T23:13:57.445Z,74.09
2019-04-28T23:16:29.894Z,76.99
2019-04-28T23:19:03.387Z,74.58
2019-04-28T23:21:51.588Z,74.36
2019-04-28T23:24:23.395Z,74.44
2019-04-28T23:26:55.139Z,74.28
2019-04-28T23:29:30.475Z,73.99
2019-04-28T23:32:00.941Z,74.57
2019-04-28T23:34:32.536Z,73.83
2019-04-28T23:37:03.995Z,73.70
2019-04-28T23:39:35.453Z,74.61
2019-04-28T23:42:08.632Z,74.68
2019-04-28T23:44:40.110Z,77.05
2019-04-28T23:47:11.685Z,76.67
2019-04-28T23:49:43.223Z,75.42
2019-04-28T23:52:14.302Z,76.74
2019-04-28T23:54:49.795Z,74.86
2019-04-28T23:57:21.191Z,76.21
2019-04-28T23:59:52.586Z,75.98
